Time;durP1;ratioP1;P1;durP2;ratioP2;P2;SDS_P1;SDS_P2;PMS_P1;PMS_P2;Temp;Humidity;BMP_temperature;BMP_pressure;BME280_temperature;BME280_humidity;BME280_pressure;Samples;Min_cycle;Max_cycle;Signal;HPM_P1;HPM_P2
2021/05/12 00:01:53;;;;;;;23.25;18.95;;;12.70;96.20;;;;;;6213390;23;20087;-70
2021/05/12 00:04:18;;;;;;;22.55;20.15;;;12.70;96.30;;;;;;6214129;23;20008;-69
2021/05/12 00:06:44;;;;;;;23.25;21.05;;;12.70;96.30;;;;;;6214342;23;20008;-70
2021/05/12 00:09:09;;;;;;;23.38;21.17;;;12.70;96.30;;;;;;6214554;23;20032;-69
2021/05/12 00:11:35;;;;;;;23.48;21.33;;;12.70;96.30;;;;;;6212682;23;20028;-69
2021/05/12 00:14:00;;;;;;;25.25;22.75;;;12.60;96.30;;;;;;6214810;23;20004;-70
2021/05/12 00:16:26;;;;;;;25.00;22.60;;;12.60;96.30;;;;;;6213597;23;20005;-69
2021/05/12 00:18:52;;;;;;;26.60;23.90;;;12.60;96.40;;;;;;6213507;23;20017;-67
2021/05/12 00:21:44;;;;;;;26.25;23.77;;;12.50;96.40;;;;;;6214464;23;20004;-69
2021/05/12 00:24:04;;;;;;;25.45;23.00;;;12.50;96.50;;;;;;6213550;23;20131;-69
2021/05/12 00:26:37;;;;;;;25.90;23.25;;;12.40;96.50;;;;;;6213235;23;20054;-69
2021/05/12 00:29:09;;;;;;;25.13;22.73;;;12.40;96.60;;;;;;6214540;23;20398;-69
2021/05/12 00:31:34;;;;;;;24.02;21.73;;;12.30;96.60;;;;;;6212185;23;20000;-69
2021/05/12 00:34:00;;;;;;;23.77;21.42;;;12.30;96.60;;;;;;6214719;23;20039;-68
2021/05/12 00:36:26;;;;;;;26.58;23.58;;;12.30;96.70;;;;;;6214988;23;20009;-69
2021/05/12 00:38:52;;;;;;;25.75;23.15;;;12.20;96.70;;;;;;6213216;23;20437;-68
2021/05/12 00:41:17;;;;;;;24.25;21.83;;;12.20;96.80;;;;;;6214418;23;20001;-68
2021/05/12 00:43:43;;;;;;;26.02;23.52;;;12.20;96.90;;;;;;6214689;23;20005;-68
2021/05/12 00:46:09;;;;;;;24.50;21.88;;;12.20;96.90;;;;;;6212261;23;20012;-69
2021/05/12 00:48:35;;;;;;;26.50;21.75;;;12.20;96.90;;;;;;6214364;23;20043;-69
2021/05/12 00:51:01;;;;;;;23.40;20.95;;;12.10;96.90;;;;;;6214537;23;20031;-69
2021/05/12 00:53:26;;;;;;;25.10;21.55;;;12.10;96.90;;;;;;6213953;23;19993;-69
2021/05/12 00:55:52;;;;;;;26.23;20.42;;;12.10;96.90;;;;;;6214353;23;20000;-68
2021/05/12 00:58:17;;;;;;;21.10;18.88;;;12.10;97.20;;;;;;6214080;23;20034;-68
2021/05/12 01:00:44;;;;;;;26.00;20.00;;;12.00;96.90;;;;;;6213610;23;20032;-68
2021/05/12 01:03:09;;;;;;;23.58;19.15;;;12.00;96.90;;;;;;6214316;23;20475;-69
2021/05/12 01:05:35;;;;;;;21.70;18.13;;;12.00;96.80;;;;;;6214133;23;20005;-69
2021/05/12 01:08:03;;;;;;;20.20;18.02;;;12.00;96.80;;;;;;6211736;23;20009;-70
2021/05/12 01:10:28;;;;;;;22.65;18.90;;;12.00;96.80;;;;;;6214456;23;19997;-69
2021/05/12 01:12:54;;;;;;;20.52;16.60;;;12.00;96.70;;;;;;6214131;23;20004;-69
2021/05/12 01:15:20;;;;;;;19.50;16.95;;;11.90;96.70;;;;;;6213440;23;20004;-69
2021/05/12 01:17:45;;;;;;;26.88;18.35;;;11.90;96.70;;;;;;6212256;23;20000;-69
2021/05/12 01:20:12;;;;;;;21.67;17.52;;;11.90;96.60;;;;;;6214095;23;20014;-71
2021/05/12 01:22:38;;;;;;;21.85;16.27;;;11.90;96.60;;;;;;6212318;23;20008;-69
2021/05/12 01:25:05;;;;;;;22.02;16.27;;;11.90;96.60;;;;;;6213245;23;19996;-69
2021/05/12 01:27:30;;;;;;;22.33;15.52;;;11.80;96.40;;;;;;6212833;23;20088;-70
2021/05/12 01:29:56;;;;;;;19.98;15.63;;;11.80;96.30;;;;;;6213522;23;20024;-69
2021/05/12 01:32:22;;;;;;;19.70;13.95;;;11.80;96.20;;;;;;6214145;23;20000;-70
2021/05/12 01:34:47;;;;;;;18.30;13.00;;;11.80;96.10;;;;;;6211888;23;20005;-69
2021/05/12 01:37:13;;;;;;;13.60;12.07;;;11.80;96.00;;;;;;6213250;23;20468;-70
2021/05/12 01:39:39;;;;;;;15.85;12.27;;;11.70;95.90;;;;;;6210544;23;20052;-70
2021/05/12 01:42:04;;;;;;;13.60;11.38;;;11.70;95.80;;;;;;6212857;23;20076;-69
2021/05/12 01:44:30;;;;;;;16.55;12.23;;;11.70;95.80;;;;;;6213974;23;20322;-68
2021/05/12 01:46:55;;;;;;;17.50;13.30;;;11.70;95.90;;;;;;6213966;23;20004;-70
2021/05/12 01:49:21;;;;;;;16.23;13.82;;;11.60;95.80;;;;;;6213130;23;20001;-69
2021/05/12 01:51:47;;;;;;;18.80;14.38;;;11.60;95.80;;;;;;6214034;23;20455;-69
2021/05/12 01:54:12;;;;;;;19.27;14.93;;;11.60;95.90;;;;;;6213912;23;20008;-69
2021/05/12 01:56:39;;;;;;;18.63;15.70;;;11.50;95.90;;;;;;6213127;23;20000;-70
2021/05/12 01:59:06;;;;;;;21.60;16.65;;;11.50;96.00;;;;;;6213488;23;20401;-70
2021/05/12 02:01:33;;;;;;;18.30;16.38;;;11.50;96.10;;;;;;6213701;23;20001;-69
2021/05/12 02:04:17;;;;;;;21.38;16.35;;;11.40;96.10;;;;;;6213283;23;20343;-68
2021/05/12 02:06:42;;;;;;;16.52;14.82;;;11.40;96.20;;;;;;6213900;23;20056;-67
2021/05/12 02:09:09;;;;;;;21.65;15.82;;;11.30;96.20;;;;;;6212175;23;20343;-67
2021/05/12 02:11:38;;;;;;;16.08;14.30;;;11.30;96.20;;;;;;6211194;23;20377;-68
2021/05/12 02:14:05;;;;;;;18.15;15.30;;;11.20;96.20;;;;;;6213974;23;20307;-68
2021/05/12 02:16:30;;;;;;;18.52;16.25;;;11.20;96.20;;;;;;6213478;23;20012;-67
2021/05/12 02:19:14;;;;;;;19.02;15.43;;;11.20;96.30;;;;;;6212645;23;20016;-68
2021/05/12 02:21:40;;;;;;;19.55;15.10;;;11.20;96.40;;;;;;6213710;23;20488;-68
2021/05/12 02:24:06;;;;;;;19.52;14.60;;;11.20;96.40;;;;;;6211716;23;20001;-70
2021/05/12 02:26:31;;;;;;;19.45;15.25;;;11.20;96.30;;;;;;6213801;23;20027;-67
2021/05/12 02:28:57;;;;;;;21.55;14.68;;;11.20;96.40;;;;;;6213343;23;20004;-68
2021/05/12 02:31:23;;;;;;;20.27;15.27;;;11.20;96.40;;;;;;6213358;23;20080;-67
2021/05/12 02:33:48;;;;;;;23.77;16.58;;;11.20;96.40;;;;;;6213387;23;20003;-68
2021/05/12 02:36:14;;;;;;;21.98;16.35;;;11.30;96.40;;;;;;6213954;23;20210;-69
2021/05/12 02:38:39;;;;;;;24.50;18.48;;;11.40;96.50;;;;;;6212438;23;20012;-67
2021/05/12 02:41:07;;;;;;;21.92;19.27;;;11.40;96.50;;;;;;6212010;23;20000;-68
2021/05/12 02:43:32;;;;;;;26.58;19.77;;;11.50;96.50;;;;;;6213440;23;20326;-68
2021/05/12 02:45:58;;;;;;;24.98;19.45;;;11.60;96.50;;;;;;6212715;23;20000;-69
2021/05/12 02:48:23;;;;;;;28.27;20.25;;;11.60;96.50;;;;;;6214038;23;20299;-69
2021/05/12 02:50:49;;;;;;;27.13;21.02;;;11.60;96.40;;;;;;6213863;23;20001;-69
2021/05/12 02:53:15;;;;;;;28.02;20.90;;;11.70;96.40;;;;;;6212657;23;20005;-69
2021/05/12 02:55:41;;;;;;;23.08;19.48;;;11.70;96.20;;;;;;6213551;23;20075;-69
2021/05/12 02:58:08;;;;;;;26.13;20.48;;;11.70;96.20;;;;;;6213316;23;20489;-70
2021/05/12 03:00:37;;;;;;;24.52;20.38;;;11.70;96.00;;;;;;6210929;23;20417;-70
2021/05/12 03:03:02;;;;;;;29.48;21.10;;;11.70;96.00;;;;;;6211696;23;20099;-68
2021/05/12 03:05:30;;;;;;;24.58;19.75;;;11.70;96.00;;;;;;6213648;23;20032;-69
2021/05/12 03:07:56;;;;;;;29.73;20.45;;;11.70;95.90;;;;;;6212582;23;20447;-69
2021/05/12 03:10:22;;;;;;;26.80;21.60;;;11.70;95.90;;;;;;6213845;23;20001;-69
2021/05/12 03:12:49;;;;;;;28.42;20.30;;;11.70;95.90;;;;;;6213309;23;19997;-70
2021/05/12 03:15:18;;;;;;;27.63;21.15;;;11.70;95.80;;;;;;6213534;23;20030;-69
2021/05/12 03:17:44;;;;;;;30.25;20.25;;;11.70;95.80;;;;;;6213170;23;19996;-69
2021/05/12 03:20:10;;;;;;;26.30;20.27;;;11.70;95.80;;;;;;6212653;23;20362;-70
2021/05/12 03:22:36;;;;;;;26.33;20.17;;;11.60;95.80;;;;;;6211895;23;20083;-69
2021/05/12 03:25:03;;;;;;;25.63;19.10;;;11.60;95.80;;;;;;6210963;23;20044;-70
2021/05/12 03:27:28;;;;;;;26.63;19.50;;;11.50;95.80;;;;;;6212194;23;20008;-70
2021/05/12 03:29:54;;;;;;;23.27;19.20;;;11.40;95.80;;;;;;6212915;23;20005;-71
2021/05/12 03:32:19;;;;;;;26.10;19.63;;;11.40;95.80;;;;;;6213720;23;20309;-70
2021/05/12 03:34:45;;;;;;;27.30;20.92;;;11.30;95.90;;;;;;6212194;23;20055;-69
2021/05/12 03:37:10;;;;;;;24.50;18.92;;;11.20;96.00;;;;;;6211704;23;20024;-71
2021/05/12 03:39:36;;;;;;;22.65;18.90;;;11.20;96.00;;;;;;6213039;23;20364;-70
2021/05/12 03:42:01;;;;;;;25.98;19.20;;;11.10;96.10;;;;;;6214363;23;20009;-70
2021/05/12 03:44:27;;;;;;;26.52;20.27;;;11.10;96.10;;;;;;6215388;23;20012;-70
2021/05/12 03:46:53;;;;;;;29.23;20.10;;;11.00;96.20;;;;;;6214999;23;20072;-70
2021/05/12 03:49:18;;;;;;;25.73;21.17;;;11.00;96.20;;;;;;6214267;23;20059;-70
2021/05/12 03:51:44;;;;;;;26.20;21.33;;;10.90;96.30;;;;;;6214868;23;20028;-70
2021/05/12 03:54:09;;;;;;;27.90;22.20;;;10.90;96.40;;;;;;6215091;23;20001;-69
2021/05/12 03:56:35;;;;;;;28.27;20.13;;;10.90;96.50;;;;;;6214034;23;20007;-68
2021/05/12 03:59:00;;;;;;;26.83;21.77;;;10.90;96.50;;;;;;6214731;23;20012;-68
2021/05/12 04:01:26;;;;;;;28.42;21.55;;;10.90;96.50;;;;;;6215118;23;19997;-69
2021/05/12 04:03:52;;;;;;;29.92;23.60;;;10.90;96.60;;;;;;6214048;23;20004;-68
2021/05/12 04:06:17;;;;;;;31.38;24.25;;;10.90;96.70;;;;;;6214661;23;20054;-68
2021/05/12 04:08:43;;;;;;;25.25;21.23;;;10.90;96.80;;;;;;6214529;23;20004;-68
2021/05/12 04:11:08;;;;;;;32.45;23.35;;;10.90;96.80;;;;;;6214056;23;19996;-69
2021/05/12 04:13:34;;;;;;;31.75;22.70;;;10.90;96.90;;;;;;6214726;23;20008;-69
2021/05/12 04:15:59;;;;;;;31.30;23.20;;;10.90;96.80;;;;;;6213252;23;20008;-69
2021/05/12 04:18:27;;;;;;;27.83;21.92;;;10.90;96.80;;;;;;6212395;23;20000;-68
2021/05/12 04:20:52;;;;;;;30.58;22.00;;;10.90;96.90;;;;;;6214927;23;20008;-69
2021/05/12 04:23:18;;;;;;;26.25;21.45;;;10.90;96.90;;;;;;6213775;23;20522;-69
2021/05/12 04:25:43;;;;;;;26.73;21.60;;;10.90;96.90;;;;;;6214568;23;20005;-69
2021/05/12 04:28:09;;;;;;;28.42;22.10;;;10.90;96.80;;;;;;6213154;23;19996;-69
2021/05/12 04:30:34;;;;;;;30.70;21.90;;;11.00;96.90;;;;;;6213877;23;20001;-69
2021/05/12 04:33:00;;;;;;;28.27;20.80;;;11.10;96.80;;;;;;6214579;23;20012;-70
2021/05/12 04:35:28;;;;;;;27.42;22.20;;;11.10;96.80;;;;;;6214879;23;20008;-68
2021/05/12 04:37:54;;;;;;;27.42;21.52;;;11.20;96.70;;;;;;6213517;23;20001;-69
2021/05/12 04:40:20;;;;;;;28.40;21.02;;;11.20;96.70;;;;;;6214691;23;20085;-68
2021/05/12 04:42:46;;;;;;;27.80;22.50;;;11.20;96.60;;;;;;6214386;23;19997;-67
2021/05/12 04:45:13;;;;;;;27.38;21.60;;;11.20;96.60;;;;;;6211914;23;20015;-67
2021/05/12 04:47:39;;;;;;;26.35;21.52;;;11.10;96.50;;;;;;6214463;23;20024;-68
2021/05/12 04:50:07;;;;;;;29.10;20.35;;;11.10;96.60;;;;;;6214396;23;20444;-69
2021/05/12 04:52:33;;;;;;;37.22;21.23;;;11.10;96.60;;;;;;6213238;23;20043;-68
2021/05/12 04:54:58;;;;;;;26.83;20.02;;;11.10;96.60;;;;;;6214352;23;20007;-68
2021/05/12 04:57:24;;;;;;;22.98;19.10;;;11.00;96.70;;;;;;6214550;23;20068;-68
2021/05/12 04:59:49;;;;;;;24.65;18.55;;;11.00;96.70;;;;;;6213455;23;20332;-68
2021/05/12 05:02:15;;;;;;;24.05;18.67;;;11.00;96.70;;;;;;6214154;23;20369;-68
2021/05/12 05:04:41;;;;;;;28.55;20.17;;;11.00;96.70;;;;;;6212589;23;20082;-68
2021/05/12 05:07:07;;;;;;;30.52;20.02;;;11.10;96.70;;;;;;6213774;23;20007;-69
2021/05/12 05:09:34;;;;;;;27.65;19.33;;;11.10;96.70;;;;;;6214250;23;20051;-69
2021/05/12 05:11:59;;;;;;;27.30;18.25;;;11.20;96.70;;;;;;6212876;23;20087;-68
2021/05/12 05:14:25;;;;;;;24.00;18.17;;;11.30;96.60;;;;;;6211985;23;20082;-69
2021/05/12 05:16:51;;;;;;;24.15;18.88;;;11.40;96.40;;;;;;6214484;23;20369;-68
2021/05/12 05:19:17;;;;;;;22.90;17.95;;;11.40;96.30;;;;;;6212321;23;20012;-69
2021/05/12 05:21:43;;;;;;;25.40;18.27;;;11.40;96.30;;;;;;6213243;23;20055;-68
2021/05/12 05:24:09;;;;;;;23.77;18.08;;;11.40;96.30;;;;;;6213966;23;20008;-69
2021/05/12 05:26:35;;;;;;;23.85;17.42;;;11.40;96.30;;;;;;6212925;23;20001;-69
2021/05/12 05:29:01;;;;;;;25.98;17.67;;;11.40;96.30;;;;;;6212304;23;20299;-69
2021/05/12 05:31:27;;;;;;;25.20;18.48;;;11.40;96.30;;;;;;6214678;23;20016;-68
2021/05/12 05:33:54;;;;;;;21.73;17.90;;;11.40;96.30;;;;;;6213317;23;20413;-69
2021/05/12 05:36:19;;;;;;;23.85;18.42;;;11.50;96.20;;;;;;6213966;23;20099;-68
2021/05/12 05:38:45;;;;;;;30.23;18.70;;;11.50;96.30;;;;;;6213556;23;20019;-68
2021/05/12 05:41:11;;;;;;;24.63;19.23;;;11.50;96.20;;;;;;6212997;23;20043;-68
2021/05/12 05:43:36;;;;;;;25.38;19.58;;;11.50;96.10;;;;;;6212479;23;20428;-69
2021/05/12 05:46:02;;;;;;;27.02;18.42;;;11.60;96.10;;;;;;6213760;23;20012;-69
2021/05/12 05:48:27;;;;;;;26.83;18.73;;;11.60;96.10;;;;;;6213314;23;20001;-68
2021/05/12 05:50:53;;;;;;;22.85;18.20;;;11.70;96.00;;;;;;6213698;23;20005;-69
2021/05/12 05:53:19;;;;;;;23.77;17.50;;;11.80;95.80;;;;;;6212226;23;20009;-69
2021/05/12 05:55:45;;;;;;;34.03;19.58;;;11.80;95.80;;;;;;6213140;23;20005;-69
2021/05/12 05:58:11;;;;;;;22.50;17.65;;;11.80;95.70;;;;;;6214020;23;20005;-69
2021/05/12 06:00:36;;;;;;;20.95;18.20;;;11.90;95.70;;;;;;6213760;23;20420;-68
2021/05/12 06:03:02;;;;;;;23.52;18.50;;;11.90;95.60;;;;;;6211052;23;19996;-69
2021/05/12 06:05:28;;;;;;;24.05;18.75;;;11.90;95.50;;;;;;6213861;23;20071;-69
2021/05/12 06:07:54;;;;;;;29.40;18.15;;;12.00;95.90;;;;;;6211798;23;20076;-70
2021/05/12 06:10:19;;;;;;;27.88;18.13;;;12.10;95.60;;;;;;6210664;23;20318;-70
2021/05/12 06:12:45;;;;;;;28.00;19.15;;;12.20;95.50;;;;;;6209683;23;20060;-70
2021/05/12 06:15:17;;;;;;;21.17;18.90;;;12.20;95.30;;;;;;6211723;23;20377;-70
2021/05/12 06:17:43;;;;;;;25.05;18.67;;;12.30;95.20;;;;;;6212159;23;20497;-71
2021/05/12 06:20:09;;;;;;;30.10;23.33;;;12.40;95.00;;;;;;6211478;23;20043;-70
2021/05/12 06:22:35;;;;;;;27.80;19.73;;;12.50;95.20;;;;;;6213019;23;20095;-69
2021/05/12 06:25:00;;;;;;;25.50;19.20;;;12.50;95.10;;;;;;6211863;23;20035;-70
2021/05/12 06:27:26;;;;;;;23.55;18.05;;;12.60;95.00;;;;;;6213009;23;20325;-69
2021/05/12 06:29:51;;;;;;;24.75;18.00;;;12.70;94.80;;;;;;6212156;23;20005;-71
2021/05/12 06:32:17;;;;;;;25.88;18.75;;;12.70;94.80;;;;;;6213141;23;20040;-71
2021/05/12 06:34:42;;;;;;;24.95;17.52;;;12.80;94.70;;;;;;6213336;23;20303;-71
2021/05/12 06:37:08;;;;;;;20.52;16.95;;;12.90;94.60;;;;;;6212613;23;20746;-71
2021/05/12 06:39:34;;;;;;;19.42;12.95;;;13.00;94.50;;;;;;6210835;23;20012;-70
2021/05/12 06:41:59;;;;;;;15.35;10.00;;;13.00;93.20;;;;;;6211324;23;20093;-73
2021/05/12 06:44:25;;;;;;;16.35;11.52;;;13.00;92.30;;;;;;6212228;23;20001;-68
2021/05/12 06:46:52;;;;;;;14.73;9.20;;;13.00;92.10;;;;;;6212797;23;20425;-69
2021/05/12 06:49:18;;;;;;;19.33;10.05;;;13.10;91.80;;;;;;6212898;23;20206;-69
2021/05/12 06:51:44;;;;;;;21.02;10.50;;;13.30;91.50;;;;;;6212469;23;20003;-69
2021/05/12 06:54:09;;;;;;;21.63;10.35;;;13.40;91.40;;;;;;6212597;23;20005;-68
2021/05/12 06:56:35;;;;;;;15.57;9.55;;;13.40;90.90;;;;;;6212152;23;20480;-67
2021/05/12 06:59:01;;;;;;;16.42;9.63;;;13.50;90.80;;;;;;6212166;23;20332;-67
2021/05/12 07:01:26;;;;;;;19.45;10.80;;;13.60;90.70;;;;;;6211549;23;20557;-70
2021/05/12 07:03:52;;;;;;;11.63;7.00;;;13.70;90.50;;;;;;6213052;23;20080;-71
2021/05/12 07:06:17;;;;;;;13.55;7.97;;;13.70;90.00;;;;;;6212186;23;20004;-70
2021/05/12 07:08:48;;;;;;;15.32;7.55;;;13.80;89.50;;;;;;6212797;23;20094;-70
2021/05/12 07:11:13;;;;;;;16.15;8.88;;;13.80;89.70;;;;;;6212383;23;20001;-66
2021/05/12 07:13:39;;;;;;;17.02;9.05;;;13.90;89.70;;;;;;6212043;23;20023;-69
2021/05/12 07:16:05;;;;;;;15.75;8.52;;;13.90;90.00;;;;;;6214714;23;20005;-69
2021/05/12 07:18:32;;;;;;;16.63;7.82;;;14.00;90.00;;;;;;6214353;23;19997;-69
2021/05/12 07:20:58;;;;;;;16.63;8.27;;;14.10;89.70;;;;;;6214477;23;20008;-69
2021/05/12 07:23:24;;;;;;;15.35;7.05;;;14.20;88.70;;;;;;6214976;23;20066;-68
2021/05/12 07:25:50;;;;;;;11.68;6.32;;;14.30;88.20;;;;;;6214558;23;20001;-68
2021/05/12 07:28:16;;;;;;;11.52;6.47;;;14.30;87.30;;;;;;6213808;23;20005;-70
2021/05/12 07:30:44;;;;;;;12.15;5.85;;;14.40;87.00;;;;;;6213152;23;20099;-69
2021/05/12 07:33:09;;;;;;;14.18;5.43;;;14.50;86.60;;;;;;6213437;23;19997;-70
2021/05/12 07:35:35;;;;;;;8.15;4.60;;;14.50;86.10;;;;;;6214732;23;20007;-69
2021/05/12 07:38:01;;;;;;;10.15;5.40;;;14.60;85.70;;;;;;6214208;23;20004;-69
2021/05/12 07:40:31;;;;;;;7.75;4.82;;;14.60;84.20;;;;;;6212510;23;20020;-71
2021/05/12 07:42:59;;;;;;;8.95;4.63;;;14.70;84.20;;;;;;6210278;23;20007;-70
2021/05/12 07:45:25;;;;;;;8.27;4.60;;;14.80;84.20;;;;;;6214904;23;20002;-69
2021/05/12 07:47:51;;;;;;;9.88;4.53;;;14.80;83.80;;;;;;6213610;23;20000;-69
2021/05/12 07:50:17;;;;;;;12.27;4.63;;;14.90;83.90;;;;;;6213298;23;20087;-70
2021/05/12 07:52:42;;;;;;;9.55;4.03;;;14.90;83.90;;;;;;6212710;23;20024;-70
2021/05/12 07:55:09;;;;;;;11.02;4.63;;;15.00;81.70;;;;;;6213603;23;20039;-70
2021/05/12 07:57:34;;;;;;;11.70;4.78;;;15.00;82.30;;;;;;6212918;23;20001;-69
2021/05/12 08:00:02;;;;;;;10.68;4.53;;;15.10;82.30;;;;;;6212935;23;20094;-70
2021/05/12 08:02:27;;;;;;;10.50;4.85;;;15.20;83.20;;;;;;6212311;23;20116;-70
2021/05/12 08:04:53;;;;;;;10.43;5.43;;;15.10;82.80;;;;;;6214491;23;20031;-69
2021/05/12 08:07:19;;;;;;;9.63;5.05;;;15.10;82.80;;;;;;6214260;23;20322;-68
2021/05/12 08:09:45;;;;;;;10.88;5.30;;;15.10;83.40;;;;;;6211883;23;20011;-70
2021/05/12 08:12:10;;;;;;;11.98;5.55;;;15.20;83.80;;;;;;6212738;23;20087;-70
2021/05/12 08:14:36;;;;;;;12.75;5.18;;;15.30;83.50;;;;;;6214067;23;20008;-70
2021/05/12 08:17:01;;;;;;;11.93;5.10;;;15.30;83.10;;;;;;6211727;23;20418;-71
2021/05/12 08:19:30;;;;;;;13.55;5.50;;;15.40;83.00;;;;;;6212440;23;20016;-70
2021/05/12 08:21:56;;;;;;;6.95;4.50;;;15.40;82.70;;;;;;6214318;23;20437;-72
2021/05/12 08:24:21;;;;;;;13.70;5.25;;;15.40;82.40;;;;;;6212065;23;20008;-68
2021/05/12 08:26:47;;;;;;;10.05;5.63;;;15.50;82.10;;;;;;6211725;23;20487;-69
2021/05/12 08:29:14;;;;;;;9.77;4.40;;;15.50;81.80;;;;;;6214058;23;20008;-69
2021/05/12 08:31:43;;;;;;;9.25;3.47;;;15.60;81.70;;;;;;6213751;23;20005;-68
2021/05/12 08:34:09;;;;;;;10.43;3.28;;;15.60;81.10;;;;;;6214109;23;20009;-68
2021/05/12 08:36:34;;;;;;;8.57;3.35;;;15.70;79.00;;;;;;6213293;23;20000;-72
2021/05/12 08:39:00;;;;;;;8.65;2.80;;;15.60;77.90;;;;;;6213703;23;20329;-72
2021/05/12 08:41:25;;;;;;;9.90;4.00;;;15.60;78.20;;;;;;6211993;23;20027;-69
2021/05/12 08:43:53;;;;;;;6.30;3.15;;;15.60;78.20;;;;;;6213025;23;20004;-67
2021/05/12 08:46:19;;;;;;;8.63;3.13;;;15.60;78.50;;;;;;6214077;23;20016;-69
2021/05/12 08:48:46;;;;;;;8.18;3.15;;;15.60;78.80;;;;;;6213841;23;20668;-69
2021/05/12 08:51:12;;;;;;;12.90;3.65;;;15.70;78.30;;;;;;6213066;23;19997;-69
2021/05/12 08:53:38;;;;;;;8.65;3.03;;;15.80;78.00;;;;;;6213847;23;20008;-67
2021/05/12 08:56:06;;;;;;;9.98;3.33;;;15.80;77.80;;;;;;6213998;23;20024;-70
2021/05/12 08:58:32;;;;;;;7.60;3.42;;;15.90;76.80;;;;;;6211376;23;20819;-70
2021/05/12 09:00:58;;;;;;;11.48;3.78;;;15.90;77.00;;;;;;6214226;23;20005;-73
2021/05/12 09:03:27;;;;;;;12.45;4.00;;;15.90;75.60;;;;;;6214200;23;20075;-68
2021/05/12 09:05:56;;;;;;;8.02;3.08;;;15.90;76.50;;;;;;6213165;23;20055;-67
2021/05/12 09:08:22;;;;;;;9.43;3.55;;;16.00;76.60;;;;;;6213922;23;20359;-72
2021/05/12 09:10:47;;;;;;;9.93;3.83;;;16.10;76.10;;;;;;6213840;23;20004;-69
2021/05/12 09:13:37;;;;;;;8.85;3.10;;;16.20;74.80;;;;;;6211525;23;20001;-70
2021/05/12 09:16:35;;;;;;;6.43;3.20;;;16.30;75.10;;;;;;6213796;23;20004;-71
2021/05/12 09:19:09;;;;;;;8.60;3.90;;;16.40;73.70;;;;;;6146745;23;20498;-66
2021/05/12 09:22:17;;;;;;;6.82;3.13;;;16.30;72.60;;;;;;6213549;23;20001;-67
2021/05/12 09:24:43;;;;;;;8.02;3.85;;;16.30;73.60;;;;;;6207510;23;20362;-68
2021/05/12 09:27:16;;;;;;;12.98;4.55;;;16.40;73.00;;;;;;6212884;23;20003;-69
2021/05/12 09:29:45;;;;;;;8.13;4.20;;;16.30;72.70;;;;;;6213151;23;20438;-71
2021/05/12 09:32:16;;;;;;;8.50;3.15;;;16.30;73.60;;;;;;6213765;23;19996;-71
2021/05/12 09:34:49;;;;;;;6.03;2.97;;;16.30;73.70;;;;;;6211032;23;20448;-70
2021/05/12 09:37:28;;;;;;;9.07;2.95;;;16.40;72.40;;;;;;6211687;23;20333;-68
2021/05/12 09:39:54;;;;;;;6.97;2.72;;;16.50;71.80;;;;;;6212155;23;20013;-69
2021/05/12 09:42:21;;;;;;;7.22;3.03;;;16.60;71.20;;;;;;6213662;23;20001;-70
2021/05/12 09:44:47;;;;;;;7.78;2.90;;;16.70;71.30;;;;;;6213689;23;20054;-69
2021/05/12 09:47:29;;;;;;;9.43;3.10;;;16.80;71.70;;;;;;6212790;23;20031;-68
2021/05/12 09:49:55;;;;;;;9.63;3.17;;;16.90;70.30;;;;;;6213060;23;20024;-66
2021/05/12 09:52:28;;;;;;;8.60;2.70;;;17.00;71.40;;;;;;6213263;23;20041;-68
2021/05/12 09:55:00;;;;;;;10.88;3.10;;;17.20;70.80;;;;;;6212245;23;20008;-70
2021/05/12 09:57:27;;;;;;;7.38;2.50;;;17.30;69.20;;;;;;6211937;23;20032;-65
2021/05/12 09:59:52;;;;;;;9.30;2.65;;;17.30;69.10;;;;;;6213149;23;20044;-66
2021/05/12 10:02:18;;;;;;;5.38;1.90;;;17.30;69.30;;;;;;6212616;23;20007;-68
2021/05/12 10:04:46;;;;;;;8.50;2.25;;;17.30;67.40;;;;;;6211536;23;20008;-67
2021/05/12 10:07:23;;;;;;;8.98;2.40;;;17.40;67.40;;;;;;6211709;23;20418;-70
2021/05/12 10:09:50;;;;;;;5.28;2.38;;;17.50;68.70;;;;;;6209097;23;20008;-68
2021/05/12 10:12:25;;;;;;;8.60;2.25;;;17.60;67.60;;;;;;6210673;23;20003;-69
2021/05/12 10:14:53;;;;;;;6.15;1.90;;;17.60;66.80;;;;;;6212513;23;20476;-67
2021/05/12 10:17:20;;;;;;;7.68;1.92;;;17.70;66.60;;;;;;6211716;23;20384;-70
2021/05/12 10:19:47;;;;;;;7.38;2.50;;;17.90;66.00;;;;;;6211494;23;20008;-70
2021/05/12 10:22:13;;;;;;;9.73;2.83;;;18.10;65.50;;;;;;6210811;23;20062;-71
2021/05/12 10:24:40;;;;;;;6.78;2.00;;;18.10;63.70;;;;;;6213372;23;20004;-70
2021/05/12 10:27:17;;;;;;;7.18;2.30;;;18.20;62.70;;;;;;6211942;23;20004;-68
2021/05/12 10:29:47;;;;;;;8.55;2.83;;;18.30;61.40;;;;;;6212349;23;20072;-68
2021/05/12 10:32:21;;;;;;;8.10;2.60;;;18.20;59.20;;;;;;6213312;23;20414;-68
2021/05/12 10:34:49;;;;;;;4.82;1.90;;;18.20;59.20;;;;;;6213229;23;20425;-69
2021/05/12 10:37:26;;;;;;;8.43;2.83;;;18.00;60.70;;;;;;6212592;23;20606;-69
2021/05/12 10:40:04;;;;;;;7.65;2.13;;;18.00;61.40;;;;;;6210944;23;20076;-68
2021/05/12 10:43:32;;;;;;;11.20;3.15;;;17.90;63.00;;;;;;6213533;23;20008;-68
2021/05/12 10:45:42;;;;;;;10.52;2.92;;;17.80;63.50;;;;;;6196966;23;20016;-68
2021/05/12 10:48:26;;;;;;;7.82;2.75;;;17.70;64.00;;;;;;6211275;23;20091;-69
2021/05/12 10:50:52;;;;;;;16.20;2.90;;;17.60;64.40;;;;;;6212542;23;20326;-69
2021/05/12 10:53:31;;;;;;;10.55;2.92;;;17.60;65.50;;;;;;6213667;23;20000;-71
2021/05/12 10:56:00;;;;;;;9.93;3.25;;;17.70;64.30;;;;;;6213855;23;20417;-71
2021/05/12 10:58:37;;;;;;;8.05;2.95;;;17.70;64.30;;;;;;6214780;23;20116;-70
2021/05/12 11:01:09;;;;;;;7.80;2.80;;;17.70;64.80;;;;;;6215053;23;20000;-70
2021/05/12 11:04:04;;;;;;;9.73;2.83;;;17.80;63.50;;;;;;6214236;23;20026;-69
2021/05/12 11:06:39;;;;;;;10.05;2.63;;;17.80;64.00;;;;;;6213696;23;20020;-69
2021/05/12 11:09:25;;;;;;;11.30;2.63;;;17.90;63.70;;;;;;6213236;23;20151;-68
2021/05/12 11:11:55;;;;;;;8.45;2.65;;;18.10;64.60;;;;;;6213899;23;20008;-69
2021/05/12 11:14:34;;;;;;;8.20;2.83;;;18.30;64.00;;;;;;6215336;23;20000;-68
2021/05/12 11:17:10;;;;;;;8.35;2.72;;;18.40;63.40;;;;;;6213299;23;20088;-68
2021/05/12 11:19:42;;;;;;;8.45;2.30;;;18.40;63.20;;;;;;6214262;23;20023;-68
2021/05/12 11:22:38;;;;;;;7.32;2.40;;;18.50;64.30;;;;;;6215190;23;20012;-68
2021/05/12 11:25:12;;;;;;;7.75;2.35;;;18.70;63.70;;;;;;6213833;23;20429;-69
2021/05/12 11:33:20;;;;;;;;;;;19.20;60.10;;;;;;6214791;23;20081;-69
2021/05/12 11:35:54;;;;;;;4.32;1.98;;;19.10;60.40;;;;;;6214714;23;19907;-69
2021/05/12 11:38:20;;;;;;;5.97;2.10;;;19.00;59.30;;;;;;6215276;23;20007;-70
2021/05/12 11:41:00;;;;;;;7.93;1.95;;;18.80;59.20;;;;;;6213814;23;20052;-69
2021/05/12 11:43:35;;;;;;;6.18;1.70;;;18.60;59.70;;;;;;6215098;23;20001;-71
2021/05/12 11:46:33;;;;;;;6.75;2.13;;;18.60;60.00;;;;;;6214551;23;20004;-72
2021/05/12 11:49:01;;;;;;;5.70;1.65;;;18.50;58.60;;;;;;6205901;23;20007;-68
2021/05/12 11:51:36;;;;;;;5.53;1.83;;;18.50;57.80;;;;;;6215140;23;20032;-70
2021/05/12 11:54:04;;;;;;;6.68;2.10;;;18.50;58.70;;;;;;6213981;23;20000;-70
2021/05/12 11:56:30;;;;;;;5.07;1.70;;;18.70;58.00;;;;;;6215014;23;20359;-69
2021/05/12 11:59:05;;;;;;;7.18;2.08;;;18.70;57.90;;;;;;6214518;23;20083;-68
2021/05/12 12:01:40;;;;;;;6.47;1.80;;;18.90;58.00;;;;;;6213171;23;20115;-70
2021/05/12 12:04:20;;;;;;;6.28;2.00;;;19.00;58.60;;;;;;6212948;23;20001;-69
2021/05/12 12:06:47;;;;;;;8.98;2.10;;;19.10;59.00;;;;;;6214499;23;20079;-71
2021/05/12 12:09:14;;;;;;;7.45;1.98;;;19.30;58.40;;;;;;6213386;23;20005;-70
2021/05/12 12:11:43;;;;;;;6.43;1.77;;;19.40;57.10;;;;;;6214823;23;20000;-72
2021/05/12 12:14:10;;;;;;;6.72;2.60;;;19.60;56.90;;;;;;6214717;23;20007;-72
2021/05/12 12:16:37;;;;;;;6.45;2.15;;;19.70;56.60;;;;;;6212174;23;20334;-72
2021/05/12 12:19:12;;;;;;;4.20;1.95;;;19.80;56.40;;;;;;6214201;23;20034;-71
2021/05/12 12:21:39;;;;;;;7.25;1.98;;;19.90;57.80;;;;;;6213789;23;20028;-71
2021/05/12 12:24:12;;;;;;;7.60;2.03;;;20.00;57.30;;;;;;6214317;23;20001;-71
2021/05/12 12:26:41;;;;;;;6.30;2.28;;;20.20;55.20;;;;;;6214566;23;20032;-71
2021/05/12 12:29:07;;;;;;;6.40;2.13;;;20.20;55.20;;;;;;6213435;23;20008;-70
2021/05/12 12:31:42;;;;;;;7.30;2.30;;;20.20;55.80;;;;;;6212612;23;20001;-68
2021/05/12 12:34:31;;;;;;;4.97;1.90;;;20.10;54.10;;;;;;6214418;23;20012;-69
2021/05/12 12:37:10;;;;;;;6.45;1.95;;;19.90;52.80;;;;;;6198550;23;20008;-69
2021/05/12 12:39:45;;;;;;;8.52;2.30;;;19.90;53.80;;;;;;6213538;23;20016;-68
2021/05/12 12:42:14;;;;;;;7.53;2.15;;;20.10;54.00;;;;;;6212815;23;20009;-70
2021/05/12 12:44:42;;;;;;;6.07;2.22;;;20.30;54.60;;;;;;6213332;23;20004;-70
2021/05/12 12:47:14;;;;;;;5.90;1.98;;;20.40;54.40;;;;;;6213990;23;20023;-69